Trinity Springs, Indiana
Current Conditions -  °F | °C
As of 7:15 AM on Tuesday 21 Oct 2014 (Local Time) from KDCY Reporting Station
Overcast Overcast  
Wind Chill: 45°   Ceiling: 5500
Heat Index: 47°   Visibility: 10mi
Dew Point: 46°   Wind: 5mph
Humidity: 97%   Direction: 310°NW
Pressure: 30.05"   Gusts: NA
Location:  38.6262°N, 86.7615°W
Report Text: KDCY 211215Z AUTO 31004KT 10SM OVC055 09/08 A3005 RMK AO2 T00850080
Loading
Personal Weather Stations






























Interactive Weather Map
Tropical Storm Tracking
New forecast layout! Learn more

10-Day Weather Forecast

Advertisements
Track Severe Weather on mobile